createdAt,value
2023-01-28T09:04:42.285Z,22.30
2023-01-28T09:07:28.241Z,19.90
2023-01-28T09:10:22.103Z,23.40
2023-01-28T09:13:18.480Z,20.80
2023-01-28T09:16:13.196Z,19.70
2023-01-28T09:19:09.064Z,22.40
2023-01-28T09:22:02.151Z,23.20
2023-01-28T09:24:55.211Z,24.00
2023-01-28T09:27:48.187Z,20.00
2023-01-28T09:30:42.610Z,23.40
2023-01-28T09:33:36.827Z,19.30
2023-01-28T09:36:29.990Z,19.40
2023-01-28T09:39:15.516Z,19.20
2023-01-28T09:42:37.066Z,23.20
2023-01-28T09:45:39.117Z,21.50
2023-01-28T09:48:25.990Z,21.60
2023-01-28T09:51:30.099Z,21.30
2023-01-28T09:54:32.582Z,27.20
2023-01-28T09:57:27.789Z,21.80
2023-01-28T10:00:28.024Z,22.00
2023-01-28T10:03:45.114Z,23.70
2023-01-28T10:06:50.954Z,25.00
2023-01-28T10:09:48.806Z,19.50
2023-01-28T10:13:03.710Z,20.50
2023-01-28T10:16:11.373Z,20.80
2023-01-28T10:19:15.332Z,21.90
2023-01-28T10:22:14.232Z,20.40
2023-01-28T10:25:06.885Z,20.30
2023-01-28T10:28:02.304Z,21.10
2023-01-28T10:33:40.261Z,22.80
2023-01-28T10:36:34.810Z,22.60
2023-01-28T10:39:22.552Z,28.50
2023-01-28T10:42:28.865Z,24.30
2023-01-28T10:45:26.097Z,21.70
2023-01-28T10:48:25.228Z,20.80
2023-01-28T10:51:21.296Z,18.90
2023-01-28T10:54:24.671Z,20.50
2023-01-28T10:57:20.341Z,22.40
2023-01-28T11:00:28.097Z,21.00
2023-01-28T11:03:20.752Z,20.20
2023-01-28T11:06:07.431Z,19.30
2023-01-28T11:09:01.530Z,20.40
2023-01-28T11:11:55.251Z,17.80
2023-01-28T11:14:55.250Z,18.60
2023-01-28T11:17:57.270Z,18.20
2023-01-28T11:20:57.498Z,18.40
2023-01-28T11:23:57.987Z,17.00
2023-01-28T11:26:55.617Z,16.10
2023-01-28T11:29:49.079Z,17.80
2023-01-28T11:32:42.093Z,17.50
2023-01-28T11:35:35.244Z,18.40
2023-01-28T11:38:29.165Z,16.50
2023-01-28T11:41:26.180Z,17.20
2023-01-28T11:44:23.114Z,16.40
2023-01-28T11:47:27.754Z,17.70
2023-01-28T11:50:31.300Z,17.30
2023-01-28T11:53:37.069Z,17.30
2023-01-28T11:56:48.230Z,17.40
2023-01-28T11:59:59.180Z,16.50
2023-01-28T12:03:01.101Z,19.10
2023-01-28T12:05:56.944Z,15.60
2023-01-28T12:09:00.531Z,16.30
2023-01-28T12:12:13.226Z,17.30
2023-01-28T12:15:21.838Z,15.90
2023-01-28T12:18:29.258Z,16.60
2023-01-28T12:21:33.226Z,18.10
2023-01-28T12:24:41.042Z,20.00
2023-01-28T12:27:42.974Z,18.20
2023-01-28T12:30:48.261Z,20.60
2023-01-28T12:34:01.272Z,20.90
2023-01-28T12:37:06.328Z,18.90
2023-01-28T12:40:17.174Z,16.30
2023-01-28T12:43:17.201Z,17.40
2023-01-28T12:46:02.251Z,17.90
2023-01-28T12:49:03.960Z,18.00
2023-01-28T12:52:05.320Z,19.90
2023-01-28T12:55:06.593Z,18.30
2023-01-28T12:57:53.783Z,17.80
2023-01-28T13:00:51.533Z,17.30
2023-01-28T13:03:41.813Z,19.90
2023-01-28T13:06:42.878Z,18.40
2023-01-28T13:09:38.751Z,18.10
2023-01-28T13:12:19.117Z,17.70
2023-01-28T13:14:57.581Z,18.90
2023-01-28T13:17:54.892Z,22.00
2023-01-28T13:20:48.514Z,21.40
2023-01-28T13:23:42.527Z,21.60
2023-01-28T13:26:43.787Z,23.30
2023-01-28T13:29:37.738Z,21.20
2023-01-28T13:32:36.207Z,20.60
2023-01-28T13:35:36.518Z,24.50
2023-01-28T13:38:30.190Z,23.10
2023-01-28T13:41:22.901Z,40.50
2023-01-28T13:44:29.539Z,21.10
2023-01-28T13:47:29.141Z,22.10
2023-01-28T13:50:25.269Z,20.10
2023-01-28T13:53:26.842Z,20.30
2023-01-28T13:56:24.891Z,22.80
2023-01-28T13:59:50.008Z,20.80
2023-01-28T14:03:14.715Z,21.00
2023-01-28T14:06:44.305Z,24.20
2023-01-28T14:10:00.627Z,24.30
2023-01-28T14:13:25.410Z,28.20
2023-01-28T14:16:27.980Z,34.10
2023-01-28T14:19:27.994Z,28.70
2023-01-28T14:22:20.334Z,28.40
2023-01-28T14:25:04.726Z,36.20
2023-01-28T14:27:51.997Z,35.90
2023-01-28T14:30:32.203Z,43.80
2023-01-28T14:33:25.151Z,35.60
2023-01-28T14:36:11.715Z,56.90
2023-01-28T14:39:05.531Z,63.60
2023-01-28T14:41:57.876Z,49.50
2023-01-28T14:44:55.636Z,51.70
2023-01-28T14:51:08.580Z,45.50
2023-01-28T14:54:26.041Z,33.10
2023-01-28T14:57:30.219Z,23.00
2023-01-28T15:00:25.870Z,23.40
2023-01-28T15:03:26.088Z,22.70
2023-01-28T15:06:21.798Z,20.30
2023-01-28T15:09:18.075Z,23.50
2023-01-28T15:12:11.591Z,18.90
2023-01-28T15:15:14.016Z,21.20
2023-01-28T15:18:18.599Z,30.10
2023-01-28T15:21:11.951Z,23.50
2023-01-28T15:24:05.341Z,24.80
2023-01-28T15:26:58.620Z,24.40
2023-01-28T15:29:57.785Z,27.30
2023-01-28T15:33:01.907Z,36.30
2023-01-28T15:35:51.531Z,25.40
2023-01-28T15:38:44.300Z,38.00
2023-01-28T15:41:40.594Z,37.70
2023-01-28T15:44:37.155Z,35.70
2023-01-28T15:47:35.576Z,27.80
2023-01-28T15:50:29.047Z,29.10
2023-01-28T15:53:22.625Z,34.40
2023-01-28T15:56:13.786Z,32.70
2023-01-28T15:59:21.037Z,35.30
2023-01-28T16:02:21.465Z,34.30
2023-01-28T16:05:10.654Z,48.30
2023-01-28T16:08:11.585Z,89.40
2023-01-28T16:11:03.666Z,72.00
2023-01-28T16:13:59.669Z,79.40
2023-01-28T16:16:53.262Z,59.00
2023-01-28T16:19:52.092Z,45.40
2023-01-28T16:22:45.129Z,36.20
2023-01-28T16:25:39.353Z,42.60
2023-01-28T16:28:33.083Z,39.10
2023-01-28T16:31:17.260Z,37.90
2023-01-28T16:34:11.715Z,35.50
2023-01-28T16:37:01.813Z,43.60
2023-01-28T16:39:34.801Z,42.40
2023-01-28T16:42:28.346Z,47.10
2023-01-28T16:45:19.901Z,60.60
2023-01-28T16:48:12.124Z,47.60
2023-01-28T16:51:05.242Z,46.10
2023-01-28T16:53:58.680Z,49.90
2023-01-28T16:56:51.971Z,59.30
2023-01-28T16:59:44.729Z,61.60
2023-01-28T17:02:28.028Z,55.50
2023-01-28T17:05:13.123Z,53.10
2023-01-28T17:08:07.612Z,57.50
2023-01-28T17:10:56.300Z,76.20
2023-01-28T17:13:50.538Z,65.40
2023-01-28T17:16:45.236Z,54.00
2023-01-28T17:19:21.333Z,55.80
2023-01-28T17:22:14.426Z,59.90
2023-01-28T17:24:59.939Z,59.00
2023-01-28T17:27:52.999Z,56.70
2023-01-28T17:30:46.094Z,55.30
2023-01-28T17:33:39.601Z,66.00
2023-01-28T17:36:32.855Z,59.90
2023-01-28T17:39:26.609Z,55.80
2023-01-28T17:42:18.176Z,51.80
2023-01-28T17:45:12.670Z,54.80
2023-01-28T17:48:06.036Z,63.80
2023-01-28T17:51:00.573Z,51.60
2023-01-28T17:53:54.773Z,51.50
2023-01-28T17:56:47.792Z,50.00
2023-01-28T17:59:40.540Z,52.00
2023-01-28T18:02:34.068Z,55.70
2023-01-28T18:05:26.960Z,52.70
2023-01-28T18:08:05.236Z,48.50
2023-01-28T18:10:38.476Z,50.20
2023-01-28T18:14:19.320Z,50.60
2023-01-28T18:16:38.096Z,50.90
2023-01-28T18:19:32.116Z,55.10
2023-01-28T18:22:25.173Z,47.20
2023-01-28T18:25:00.965Z,54.80
2023-01-28T18:27:48.254Z,57.00
2023-01-28T18:30:34.099Z,54.90
2023-01-28T18:33:27.180Z,49.20
2023-01-28T18:36:20.307Z,52.40
2023-01-28T18:39:14.926Z,65.90
2023-01-28T18:42:09.004Z,63.60
2023-01-28T18:45:01.892Z,66.90
2023-01-28T18:47:48.836Z,106.30
2023-01-28T18:50:41.598Z,67.20
2023-01-28T18:53:35.389Z,64.80
2023-01-28T18:56:21.783Z,113.30
2023-01-28T18:59:10.081Z,124.00
2023-01-28T19:02:03.934Z,103.90
2023-01-28T19:04:49.341Z,80.80
2023-01-28T19:07:42.535Z,64.20
2023-01-28T19:10:26.294Z,61.50
2023-01-28T19:13:04.792Z,75.80
2023-01-28T19:15:50.343Z,85.10
2023-01-28T19:18:36.583Z,93.70
2023-01-28T19:21:21.340Z,89.90
2023-01-28T19:24:02.470Z,90.10
2023-01-28T19:26:45.984Z,77.40
2023-01-28T19:29:38.811Z,68.70
2023-01-28T19:32:31.834Z,74.10
2023-01-28T19:35:25.045Z,50.40
2023-01-28T19:38:17.789Z,64.40
2023-01-28T19:41:06.866Z,71.40
2023-01-28T19:43:59.989Z,72.80
2023-01-28T19:46:44.780Z,61.10
2023-01-28T19:49:32.080Z,59.50
2023-01-28T19:52:25.797Z,62.40
2023-01-28T19:55:21.597Z,57.60
2023-01-28T19:58:15.371Z,70.00
2023-01-28T20:03:44.327Z,68.60
2023-01-28T20:06:33.158Z,67.80
2023-01-28T20:09:21.167Z,57.40
2023-01-28T20:12:12.152Z,52.50
2023-01-28T20:14:56.040Z,59.40
2023-01-28T20:17:44.537Z,55.00
2023-01-28T20:20:38.720Z,47.90
2023-01-28T20:23:16.491Z,53.20
2023-01-28T20:26:09.482Z,52.00
2023-01-28T20:28:45.386Z,52.10
2023-01-28T20:31:34.109Z,52.40
2023-01-28T20:34:26.895Z,53.10
2023-01-28T20:37:21.238Z,54.70
2023-01-28T20:40:15.173Z,76.60
2023-01-28T20:43:09.141Z,57.80
2023-01-28T20:45:56.010Z,58.10
2023-01-28T20:48:50.072Z,54.90
2023-01-28T20:51:36.123Z,56.50
2023-01-28T20:54:30.031Z,60.60
2023-01-28T20:57:22.841Z,58.50
2023-01-28T21:00:10.468Z,56.10
2023-01-28T21:03:03.341Z,59.70
2023-01-28T21:05:47.349Z,57.60
2023-01-28T21:08:39.944Z,53.00
2023-01-28T21:11:33.201Z,52.60
2023-01-28T21:14:18.759Z,53.10
2023-01-28T21:17:14.471Z,59.00
2023-01-28T21:20:09.012Z,54.90
2023-01-28T21:23:01.905Z,60.20
2023-01-28T21:25:54.614Z,57.10
2023-01-28T21:28:47.684Z,59.30
2023-01-28T21:31:40.427Z,62.40
2023-01-28T21:34:24.917Z,62.10
2023-01-28T21:37:24.249Z,64.00
2023-01-28T21:40:19.913Z,57.50
2023-01-28T21:43:13.483Z,62.40
2023-01-28T21:46:06.735Z,61.40
2023-01-28T21:49:01.489Z,60.00
2023-01-28T21:51:54.342Z,63.50
2023-01-28T21:54:47.152Z,69.00
2023-01-28T21:57:32.995Z,75.40
2023-01-28T22:00:26.392Z,74.10
2023-01-28T22:03:19.181Z,81.60
2023-01-28T22:06:12.037Z,68.70
2023-01-28T22:09:05.258Z,62.10
2023-01-28T22:11:58.143Z,63.40
2023-01-28T22:14:50.995Z,57.00
2023-01-28T22:17:42.447Z,57.60
2023-01-28T22:20:37.467Z,59.10
2023-01-28T22:23:30.457Z,56.10
2023-01-28T22:26:24.604Z,58.20
2023-01-28T22:29:19.442Z,56.30
2023-01-28T22:32:13.322Z,57.20
2023-01-28T22:35:06.423Z,57.80
2023-01-28T22:38:01.726Z,60.30
2023-01-28T22:40:47.238Z,60.00
2023-01-28T22:43:41.218Z,62.80
2023-01-28T22:46:35.239Z,67.30
2023-01-28T22:49:28.190Z,81.30
2023-01-28T22:52:20.962Z,78.60
2023-01-28T22:55:14.127Z,77.30
2023-01-28T22:58:07.402Z,76.70
2023-01-28T23:01:00.326Z,67.00
2023-01-28T23:03:54.932Z,59.40
2023-01-28T23:06:33.783Z,70.40
2023-01-28T23:09:19.191Z,64.50
2023-01-28T23:12:13.684Z,103.80
2023-01-28T23:15:24.340Z,58.10
2023-01-28T23:18:44.218Z,64.80
2023-01-28T23:21:56.135Z,56.00
2023-01-28T23:24:50.574Z,53.40
2023-01-28T23:27:43.719Z,56.80
2023-01-28T23:30:37.479Z,56.20
2023-01-28T23:33:30.346Z,53.80
2023-01-28T23:36:23.414Z,52.20
2023-01-28T23:39:08.942Z,49.90
2023-01-28T23:42:00.313Z,50.30
2023-01-28T23:44:53.127Z,43.30
2023-01-28T23:47:45.886Z,41.40
2023-01-28T23:50:38.617Z,34.60
2023-01-28T23:53:32.593Z,35.20
2023-01-28T23:56:25.400Z,32.80
2023-01-28T23:59:18.188Z,26.10
